Terminal Aerodrome Forecast
Issued by NWS

Home | Current Version | Previous Version | Text Only | Print | Product List | Glossary On
Versions: 1 2 3 4 5 6 7 8 9 10 11 12 13 14 15 16 17 18 19 20
000
FTUS43 KDMX 230520
TAFMCW
TAF
KMCW 230520Z 2306/2406 15006KT P6SM VCTS FEW040CB BKN080
     FM230800 14006KT 6SM -TSRA BKN040CB OVC080
      TEMPO 2308/2311 4SM -TSRA OVC035CB
     FM231400 14008KT P6SM VCTS OVC060CB
     FM231800 16010KT P6SM BKN140
     FM240500 16008KT P6SM FEW050 BKN250=

USA.gov is the U.S. government's official web portal to all federal, state and local government web resources and services.